Time;durP1;ratioP1;P1;durP2;ratioP2;P2;SDS_P1;SDS_P2;PMS_P1;PMS_P2;Temp;Humidity;BMP_temperature;BMP_pressure;BME280_temperature;BME280_humidity;BME280_pressure;Samples;Min_cycle;Max_cycle;Signal;HPM_P1;HPM_P2
2023/06/20 00:01:30;;;;;;;23.83;18.45;;;;;;;21.08;83.58;101105.31;5089460;28;20451;-69
2023/06/20 00:03:55;;;;;;;25.40;19.88;;;;;;;21.06;85.37;101108.06;5083682;28;20024;-69
2023/06/20 00:06:22;;;;;;;23.27;19.13;;;;;;;21.03;85.93;101103.81;5089607;28;20016;-69
2023/06/20 00:08:48;;;;;;;22.02;18.55;;;;;;;21.01;84.82;101103.03;5083058;28;20031;-69
2023/06/20 00:11:13;;;;;;;21.92;18.10;;;;;;;21.05;84.74;101096.59;5087854;28;20103;-69
2023/06/20 00:13:42;;;;;;;23.10;18.80;;;;;;;21.03;83.21;101102.97;5085607;28;20593;-70
2023/06/20 00:16:11;;;;;;;19.90;17.65;;;;;;;21.04;84.27;101109.94;5085827;28;20024;-69
2023/06/20 00:18:36;;;;;;;27.45;18.15;;;;;;;20.96;83.16;101098.97;5086527;28;20098;-69
2023/06/20 00:21:02;;;;;;;20.25;17.38;;;;;;;20.87;82.44;101092.47;5085308;28;21104;-69
2023/06/20 00:23:29;;;;;;;22.70;18.17;;;;;;;20.90;82.72;101089.63;5085521;28;20031;-70
2023/06/20 00:25:55;;;;;;;21.27;17.55;;;;;;;20.91;83.94;101090.47;5085328;28;20040;-69
2023/06/20 00:28:20;;;;;;;21.30;17.60;;;;;;;20.97;83.38;101090.09;5086337;28;20051;-70
2023/06/20 00:30:45;;;;;;;19.25;16.92;;;;;;;20.93;82.01;101100.03;5085146;28;20043;-69
2023/06/20 00:33:11;;;;;;;22.33;16.25;;;;;;;20.91;84.12;101093.13;5085388;28;20028;-69
2023/06/20 00:35:37;;;;;;;20.73;16.40;;;;;;;20.89;82.43;101092.34;5085865;28;20022;-69
2023/06/20 00:38:06;;;;;;;18.90;15.77;;;;;;;20.93;83.35;101092.09;5084048;28;20028;-69
2023/06/20 00:40:32;;;;;;;18.42;14.93;;;;;;;20.81;82.26;101069.00;5085858;28;20406;-69
2023/06/20 00:42:58;;;;;;;19.67;15.50;;;;;;;20.92;81.85;101094.81;5086357;28;20111;-69
2023/06/20 00:45:26;;;;;;;17.95;15.68;;;;;;;20.92;82.61;101092.16;5078810;28;20107;-69
2023/06/20 00:47:52;;;;;;;19.40;15.77;;;;;;;20.85;82.58;101088.19;5082136;28;20024;-70
2023/06/20 00:50:18;;;;;;;22.08;16.13;;;;;;;20.89;80.63;101090.56;5076921;28;20749;-70
2023/06/20 00:52:44;;;;;;;19.05;15.55;;;;;;;20.80;80.44;101081.41;5077875;28;20035;-69
2023/06/20 00:55:10;;;;;;;17.75;14.93;;;;;;;20.86;81.19;101085.44;5079452;28;20035;-69
2023/06/20 00:57:36;;;;;;;19.15;14.85;;;;;;;20.83;81.41;101080.38;5084168;28;20027;-70
2023/06/20 01:00:06;;;;;;;17.25;15.07;;;;;;;20.77;80.93;101073.63;5085781;28;20034;-70
2023/06/20 01:02:31;;;;;;;18.50;15.40;;;;;;;20.86;80.84;101076.66;5083235;28;20024;-69
2023/06/20 01:04:56;;;;;;;19.30;14.85;;;;;;;20.86;80.76;101079.28;5076287;28;20039;-69
2023/06/20 01:07:44;;;;;;;17.65;14.80;;;;;;;20.90;79.53;101075.53;5085364;28;20451;-70
2023/06/20 01:10:26;;;;;;;17.58;14.57;;;;;;;20.88;80.49;101074.75;5078998;28;20024;-70
2023/06/20 01:12:59;;;;;;;20.63;15.95;;;;;;;20.85;79.72;101067.84;5081866;28;20031;-69
2023/06/20 01:15:59;;;;;;;18.15;15.23;;;;;;;20.88;78.72;101077.41;5086448;28;20026;-69
2023/06/20 01:18:33;;;;;;;20.23;15.35;;;;;;;20.87;79.39;101076.56;5067041;28;20365;-69
2023/06/20 01:21:07;;;;;;;19.20;15.02;;;;;;;20.89;78.75;101079.94;5086285;28;20024;-69
2023/06/20 01:23:41;;;;;;;18.50;14.15;;;;;;;20.79;79.53;101071.72;5081750;28;20101;-69
2023/06/20 01:26:23;;;;;;;22.80;15.80;;;;;;;20.83;79.87;101066.25;5088088;28;20031;-69
2023/06/20 01:29:09;;;;;;;17.50;14.93;;;;;;;20.86;79.42;101066.03;5078288;28;20480;-69
2023/06/20 01:31:37;;;;;;;17.58;14.30;;;;;;;20.85;78.94;101061.69;5077286;28;20040;-69
2023/06/20 01:34:10;;;;;;;17.73;14.05;;;;;;;20.83;79.27;101059.16;5082041;28;20480;-70
2023/06/20 01:36:38;;;;;;;17.52;15.05;;;;;;;20.88;79.25;101058.88;5086497;28;20032;-69
2023/06/20 01:39:12;;;;;;;20.85;14.93;;;;;;;20.78;78.66;101058.59;5081807;28;20056;-69
2023/06/20 01:41:41;;;;;;;18.23;14.65;;;;;;;20.76;78.62;101053.41;5086394;28;20494;-69
2023/06/20 01:44:09;;;;;;;18.77;15.48;;;;;;;20.77;77.95;101048.94;5082012;28;20032;-69
2023/06/20 01:46:35;;;;;;;17.77;15.40;;;;;;;20.78;77.58;101053.28;5087724;28;20131;-70
2023/06/20 01:49:01;;;;;;;18.85;15.10;;;;;;;20.73;77.85;101036.81;5080456;28;20111;-69
2023/06/20 01:51:29;;;;;;;19.75;15.15;;;;;;;20.70;77.76;101045.84;5088660;28;20537;-70
2023/06/20 01:53:55;;;;;;;19.33;14.65;;;;;;;20.73;77.61;101042.13;5073257;28;20107;-70
2023/06/20 01:56:23;;;;;;;17.85;15.60;;;;;;;20.65;77.37;101042.59;5071650;28;20098;-69
2023/06/20 01:58:49;;;;;;;16.35;14.60;;;;;;;20.65;77.31;101028.53;5086105;28;20472;-69
2023/06/20 02:01:16;;;;;;;16.90;14.57;;;;;;;20.68;77.42;101037.13;5080428;28;20094;-69
2023/06/20 02:03:43;;;;;;;16.33;14.50;;;;;;;20.65;76.35;101032.00;5086783;28;20024;-69
2023/06/20 02:06:10;;;;;;;18.38;14.65;;;;;;;20.66;75.80;101033.72;5080967;28;20082;-69
2023/06/20 02:08:40;;;;;;;15.80;14.18;;;;;;;20.66;75.75;101032.84;5086672;28;20090;-69
2023/06/20 02:11:07;;;;;;;19.33;14.07;;;;;;;20.62;76.36;101034.00;5081148;28;20055;-69
2023/06/20 02:13:34;;;;;;;18.50;14.18;;;;;;;20.58;75.24;101031.53;5087096;28;20464;-69
2023/06/20 02:16:02;;;;;;;17.17;14.20;;;;;;;20.62;76.11;101029.56;5076954;28;20074;-69
2023/06/20 02:18:31;;;;;;;19.65;14.05;;;;;;;20.60;74.73;101031.47;5085927;28;20020;-69
2023/06/20 02:20:59;;;;;;;17.02;14.07;;;;;;;20.67;74.90;101038.06;5081581;28;20479;-69
2023/06/20 02:23:27;;;;;;;18.80;14.45;;;;;;;20.60;75.49;101025.28;5084382;28;20039;-69
2023/06/20 02:25:56;;;;;;;15.60;13.38;;;;;;;20.63;75.01;101036.53;5083040;28;20048;-69
2023/06/20 02:28:24;;;;;;;17.02;13.70;;;;;;;20.61;75.96;101030.50;5076878;28;20051;-69
2023/06/20 02:30:52;;;;;;;18.40;13.55;;;;;;;20.58;76.81;101046.59;5083400;28;20036;-69
2023/06/20 02:33:21;;;;;;;17.02;14.57;;;;;;;20.53;75.43;101032.78;5081854;28;20048;-70
2023/06/20 02:35:50;;;;;;;15.43;12.98;;;;;;;20.48;76.38;101037.50;5082999;28;20485;-69
2023/06/20 02:38:15;;;;;;;15.68;13.65;;;;;;;20.43;78.72;101044.84;5082745;28;20024;-69
2023/06/20 02:40:40;;;;;;;16.08;14.23;;;;;;;20.45;77.32;101038.53;5083667;28;20032;-69
2023/06/20 02:43:06;;;;;;;17.33;13.77;;;;;;;20.47;76.77;101028.69;5081861;28;20546;-69
2023/06/20 02:45:32;;;;;;;17.25;13.82;;;;;;;20.43;76.16;101035.09;5083399;28;20031;-69
2023/06/20 02:48:22;;;;;;;15.40;13.35;;;;;;;20.47;75.50;101035.75;5084098;28;20156;-69
2023/06/20 02:51:02;;;;;;;15.98;13.60;;;;;;;20.43;75.38;101036.91;5075275;28;20032;-69
2023/06/20 02:53:50;;;;;;;15.60;12.25;;;;;;;20.40;76.75;101030.00;5076649;28;20040;-69
2023/06/20 02:56:16;;;;;;;16.48;14.32;;;;;;;20.34;76.76;101035.69;5077639;28;20077;-69
2023/06/20 02:58:46;;;;;;;15.35;13.50;;;;;;;20.29;75.62;101027.16;5073725;28;20468;-69
2023/06/20 03:01:18;;;;;;;16.88;13.60;;;;;;;20.29;76.64;101035.97;5079427;28;20077;-69
2023/06/20 03:03:45;;;;;;;18.67;13.63;;;;;;;20.29;76.25;101028.00;5090053;28;20106;-69
2023/06/20 03:06:16;;;;;;;15.82;14.20;;;;;;;20.28;76.88;101028.13;5084621;28;20024;-69
2023/06/20 03:08:49;;;;;;;17.17;14.60;;;;;;;20.27;77.29;101019.34;5090695;28;20028;-69
2023/06/20 03:11:15;;;;;;;16.02;12.93;;;;;;;20.23;77.01;101016.94;5083768;28;20040;-69
2023/06/20 03:13:40;;;;;;;17.50;13.93;;;;;;;20.25;75.87;101021.22;5090510;28;20093;-69
2023/06/20 03:16:09;;;;;;;16.30;14.07;;;;;;;20.19;76.97;101020.75;5084311;28;20028;-69
2023/06/20 03:18:35;;;;;;;17.85;13.80;;;;;;;20.15;76.60;101025.38;5089371;28;20050;-70
2023/06/20 03:21:00;;;;;;;14.43;12.93;;;;;;;20.10;77.69;101012.41;5084600;28;20035;-69
2023/06/20 03:23:26;;;;;;;16.05;13.57;;;;;;;20.08;76.74;101019.59;5088668;28;20024;-69
2023/06/20 03:25:51;;;;;;;22.45;14.07;;;;;;;20.03;76.91;101019.00;5086250;28;20039;-70
2023/06/20 03:28:16;;;;;;;16.73;14.85;;;;;;;19.94;76.79;101024.00;5086614;28;20052;-69
2023/06/20 03:30:42;;;;;;;19.08;14.30;;;;;;;19.94;77.93;101026.66;5087111;28;20476;-69
2023/06/20 03:33:07;;;;;;;16.70;14.35;;;;;;;19.96;78.29;101030.06;5085234;28;20111;-69
2023/06/20 03:35:32;;;;;;;16.23;14.30;;;;;;;19.92;77.92;101033.84;5087190;28;20032;-69
2023/06/20 03:37:57;;;;;;;18.30;14.02;;;;;;;19.84;78.92;101037.78;5086108;28;20020;-69
2023/06/20 03:40:25;;;;;;;19.98;14.82;;;;;;;19.78;79.08;101039.94;5073677;28;20036;-70
2023/06/20 03:42:51;;;;;;;17.75;14.63;;;;;;;19.73;78.76;101034.06;5087413;28;20036;-69
2023/06/20 03:45:16;;;;;;;15.68;14.05;;;;;;;19.67;78.37;101045.00;5086167;28;20518;-69
2023/06/20 03:47:42;;;;;;;17.65;13.50;;;;;;;19.65;79.83;101053.00;5086078;28;20028;-69
2023/06/20 03:50:10;;;;;;;17.75;13.32;;;;;;;19.67;79.56;101064.38;5086266;28;20032;-70
2023/06/20 03:52:35;;;;;;;16.33;13.75;;;;;;;19.61;79.65;101062.03;5071640;28;20056;-69
2023/06/20 03:55:00;;;;;;;18.35;14.05;;;;;;;19.61;80.80;101069.97;5083450;28;20067;-69
2023/06/20 03:57:26;;;;;;;17.08;14.15;;;;;;;19.55;80.50;101062.38;5084271;28;20024;-70
2023/06/20 03:59:51;;;;;;;15.60;14.00;;;;;;;19.54;81.37;101065.97;5087028;28;20427;-69
2023/06/20 04:02:16;;;;;;;17.05;14.13;;;;;;;19.52;81.83;101070.50;5085019;28;20032;-69
2023/06/20 04:04:49;;;;;;;15.70;14.00;;;;;;;19.49;82.39;101062.75;5085521;28;20036;-69
2023/06/20 04:07:20;;;;;;;18.90;13.82;;;;;;;19.48;81.46;101075.09;5085771;28;20197;-69
2023/06/20 04:09:51;;;;;;;16.30;13.35;;;;;;;19.56;82.15;101069.41;5085606;28;20032;-70
2023/06/20 04:12:17;;;;;;;17.95;13.88;;;;;;;19.55;83.29;101065.03;5085590;28;20065;-69
2023/06/20 04:14:42;;;;;;;16.80;14.25;;;;;;;19.52;82.77;101051.97;5087676;28;20032;-69
2023/06/20 04:17:08;;;;;;;19.10;14.95;;;;;;;19.57;83.27;101045.50;5086557;28;20115;-69
2023/06/20 04:19:33;;;;;;;17.35;14.48;;;;;;;19.61;83.17;101044.38;5085153;28;20085;-69
2023/06/20 04:22:01;;;;;;;15.57;13.88;;;;;;;19.54;82.95;101044.81;5085165;28;20035;-69
2023/06/20 04:24:27;;;;;;;18.95;15.27;;;;;;;19.62;82.68;101047.91;5087212;28;20055;-70
2023/06/20 04:26:55;;;;;;;17.52;14.20;;;;;;;19.76;82.93;101044.47;5083702;28;20473;-70
2023/06/20 04:29:21;;;;;;;15.68;14.00;;;;;;;19.80;82.38;101025.69;5087732;28;20399;-70
2023/06/20 04:31:47;;;;;;;18.23;14.10;;;;;;;19.81;81.61;101040.59;5082565;28;20033;-69
2023/06/20 04:34:12;;;;;;;18.23;14.20;;;;;;;19.90;83.07;101046.31;5090025;28;20471;-69
2023/06/20 04:36:38;;;;;;;18.25;15.05;;;;;;;19.95;83.15;101039.81;5081985;28;20055;-69
2023/06/20 04:39:04;;;;;;;18.35;14.80;;;;;;;20.01;82.93;101046.50;5090137;28;20024;-69
2023/06/20 04:41:29;;;;;;;19.00;15.43;;;;;;;20.05;82.87;101033.00;5082539;28;20020;-70
2023/06/20 04:43:54;;;;;;;18.48;14.95;;;;;;;20.25;83.21;101036.25;5088451;28;20118;-70
2023/06/20 04:46:23;;;;;;;20.80;15.27;;;;;;;20.40;82.97;101034.44;5083771;28;20512;-70
2023/06/20 04:48:48;;;;;;;17.02;15.13;;;;;;;20.54;82.04;101030.03;5087512;28;20090;-70
2023/06/20 04:51:14;;;;;;;16.98;14.43;;;;;;;20.68;81.14;101028.34;5089797;28;20452;-70
2023/06/20 04:53:39;;;;;;;19.90;14.48;;;;;;;20.78;80.33;101025.00;5077976;28;20034;-70
2023/06/20 04:56:05;;;;;;;16.85;14.30;;;;;;;20.95;80.97;101028.38;5082651;28;20028;-69
2023/06/20 04:58:30;;;;;;;16.10;14.15;;;;;;;21.03;78.99;101026.94;5087399;28;20051;-69
2023/06/20 05:00:56;;;;;;;20.88;14.82;;;;;;;21.19;78.58;101028.56;5082421;28;20107;-69
2023/06/20 05:03:22;;;;;;;18.48;14.05;;;;;;;21.26;78.10;101020.16;5088066;28;20016;-69
2023/06/20 05:05:48;;;;;;;18.45;14.68;;;;;;;21.42;79.08;101019.19;5082332;28;20058;-69
2023/06/20 05:08:13;;;;;;;19.30;14.15;;;;;;;21.50;78.47;101000.94;5086861;28;20414;-69
2023/06/20 05:10:38;;;;;;;18.17;13.93;;;;;;;21.62;79.12;101005.44;5083011;28;20063;-69
2023/06/20 05:13:04;;;;;;;16.77;13.38;;;;;;;21.79;77.83;101003.44;5084684;28;20028;-69
2023/06/20 05:15:29;;;;;;;15.70;13.45;;;;;;;22.02;75.77;100997.41;5084832;28;20020;-70
2023/06/20 05:17:54;;;;;;;13.57;12.18;;;;;;;22.26;74.87;100992.22;5082763;28;20028;-69
2023/06/20 05:20:20;;;;;;;13.52;10.20;;;;;;;22.38;73.23;100977.22;5085546;28;20066;-69
2023/06/20 05:22:46;;;;;;;14.98;10.27;;;;;;;22.61;74.25;100984.41;5082792;28;20467;-69
2023/06/20 05:25:11;;;;;;;10.70;9.60;;;;;;;22.83;73.04;100989.03;5084558;28;20036;-69
2023/06/20 05:27:37;;;;;;;10.00;8.48;;;;;;;22.98;72.12;100980.91;5085081;28;20150;-69
2023/06/20 05:30:03;;;;;;;10.80;8.32;;;;;;;23.05;73.65;100980.38;5082131;28;20428;-69
2023/06/20 05:32:29;;;;;;;10.73;7.70;;;;;;;23.20;72.92;100973.06;5084200;28;20028;-69
2023/06/20 05:34:54;;;;;;;7.72;6.93;;;;;;;23.25;72.83;100970.03;5083811;28;20020;-69
2023/06/20 05:37:19;;;;;;;8.02;7.22;;;;;;;23.22;71.87;100976.47;5070015;28;20039;-70
2023/06/20 05:39:45;;;;;;;7.75;6.38;;;;;;;23.24;73.07;100968.34;5084460;28;20465;-69
2023/06/20 05:42:19;;;;;;;9.15;7.60;;;;;;;23.22;72.84;100983.59;5082766;28;20028;-69
2023/06/20 05:44:44;;;;;;;8.32;6.70;;;;;;;23.14;72.87;100974.34;5086196;28;20029;-69
2023/06/20 05:47:17;;;;;;;8.07;6.68;;;;;;;23.19;72.54;100979.34;5081184;28;20456;-69
2023/06/20 05:49:42;;;;;;;7.25;6.50;;;;;;;23.16;72.80;100978.72;5087781;28;20613;-70
2023/06/20 05:52:08;;;;;;;7.60;6.60;;;;;;;23.06;72.76;100986.53;5079457;28;20460;-69
2023/06/20 05:54:33;;;;;;;6.75;6.05;;;;;;;23.01;73.43;100981.53;5082334;28;20032;-69
2023/06/20 05:56:59;;;;;;;9.15;6.30;;;;;;;22.91;74.24;100983.16;5085385;28;20020;-70
2023/06/20 05:59:26;;;;;;;6.75;5.75;;;;;;;22.98;74.26;101002.19;5081838;28;20055;-70
2023/06/20 06:01:52;;;;;;;10.52;5.55;;;;;;;22.89;75.33;100993.06;5084360;28;20024;-69
2023/06/20 06:04:17;;;;;;;6.18;5.57;;;;;;;22.72;76.37;101001.38;5083123;28;20020;-69
2023/06/20 06:06:44;;;;;;;7.68;5.80;;;;;;;22.51;76.48;101004.63;5082972;28;20024;-69
2023/06/20 06:09:10;;;;;;;6.93;6.13;;;;;;;22.37;79.53;101012.72;5084876;28;20063;-69
2023/06/20 06:11:36;;;;;;;7.28;6.45;;;;;;;22.26;80.04;101016.13;5081440;28;20060;-69
2023/06/20 06:14:01;;;;;;;8.57;5.88;;;;;;;22.33;80.84;101008.56;5086422;28;20479;-69
2023/06/20 06:16:26;;;;;;;7.00;6.18;;;;;;;22.44;80.13;101014.84;5080948;28;20028;-70
2023/06/20 06:18:55;;;;;;;7.13;5.57;;;;;;;22.57;79.37;101004.19;5087859;28;20074;-69
2023/06/20 06:21:20;;;;;;;7.88;5.75;;;;;;;22.67;79.34;101007.03;5080089;28;20499;-69
2023/06/20 06:23:47;;;;;;;8.60;5.97;;;;;;;22.82;79.21;100999.75;5087624;28;20028;-69
2023/06/20 06:26:12;;;;;;;8.00;7.05;;;;;;;22.94;78.24;100996.25;5080703;28;20061;-70
2023/06/20 06:28:37;;;;;;;8.55;7.32;;;;;;;22.95;75.96;100989.13;5085465;28;20048;-70
2023/06/20 06:31:13;;;;;;;8.60;7.30;;;;;;;23.01;77.62;101002.81;5082073;28;20375;-70
2023/06/20 06:33:40;;;;;;;9.63;7.70;;;;;;;23.13;78.69;100990.44;5085790;28;20028;-70
2023/06/20 06:36:05;;;;;;;10.23;7.90;;;;;;;23.16;76.75;101000.00;5080949;28;20361;-69
2023/06/20 06:38:33;;;;;;;7.85;7.00;;;;;;;23.26;76.54;101016.97;5083989;28;20153;-69
2023/06/20 06:40:59;;;;;;;9.75;7.47;;;;;;;23.24;74.68;101009.09;5083851;28;20031;-70
2023/06/20 06:43:25;;;;;;;9.60;7.80;;;;;;;23.13;75.36;101001.06;5082064;28;20078;-69
2023/06/20 06:45:51;;;;;;;9.95;7.68;;;;;;;23.13;76.98;100996.59;5083946;28;20024;-69
2023/06/20 06:48:16;;;;;;;8.93;7.88;;;;;;;23.13;75.79;101001.06;5083199;28;20039;-69
2023/06/20 06:50:45;;;;;;;9.18;7.57;;;;;;;23.11;76.11;100997.66;5082985;28;20044;-69
2023/06/20 06:53:11;;;;;;;10.00;7.47;;;;;;;23.11;77.03;100998.50;5078686;28;20467;-69
2023/06/20 06:55:36;;;;;;;10.15;7.50;;;;;;;23.18;77.37;100995.41;5083276;28;20099;-70
2023/06/20 06:58:01;;;;;;;10.93;7.35;;;;;;;23.21;76.62;101000.50;5084114;28;20483;-69
2023/06/20 07:00:27;;;;;;;10.27;8.10;;;;;;;23.19;76.43;101005.09;5082395;28;20028;-70
2023/06/20 07:02:52;;;;;;;11.55;7.93;;;;;;;23.22;75.81;100999.56;5082077;28;20028;-69
2023/06/20 07:05:19;;;;;;;13.25;8.70;;;;;;;23.19;75.31;101002.44;5083673;28;20024;-69
2023/06/20 07:07:44;;;;;;;9.10;8.20;;;;;;;23.21;76.74;100996.03;5081249;28;20029;-70
2023/06/20 07:10:10;;;;;;;12.55;8.57;;;;;;;23.22;75.45;100995.06;5082828;28;20044;-69
2023/06/20 07:12:35;;;;;;;16.45;9.18;;;;;;;23.26;75.83;100995.69;5081455;28;20379;-69
2023/06/20 07:15:00;;;;;;;10.93;8.93;;;;;;;23.28;75.25;100988.44;5083769;28;20154;-69
2023/06/20 07:17:26;;;;;;;10.52;8.60;;;;;;;23.36;74.84;100978.94;5082267;28;20383;-69
2023/06/20 07:19:52;;;;;;;9.35;8.38;;;;;;;23.52;77.36;100986.59;5081882;28;20044;-70
2023/06/20 07:22:19;;;;;;;12.63;8.75;;;;;;;23.57;75.29;100984.44;5083820;28;20055;-69
2023/06/20 07:24:44;;;;;;;10.93;8.48;;;;;;;23.59;74.19;100981.66;5080819;28;20029;-69
2023/06/20 07:27:10;;;;;;;9.65;8.50;;;;;;;23.73;75.06;100984.16;5083494;28;20396;-69
2023/06/20 07:29:35;;;;;;;8.52;7.72;;;;;;;23.66;73.54;100966.91;5083479;28;20068;-69
2023/06/20 07:32:00;;;;;;;8.90;7.43;;;;;;;23.83;72.52;100971.81;5080937;28;20116;-70
2023/06/20 07:34:25;;;;;;;8.93;7.72;;;;;;;23.91;74.21;100979.22;5085600;28;20032;-69
2023/06/20 07:36:51;;;;;;;8.40;7.55;;;;;;;24.03;74.02;100964.97;5080303;28;20082;-70
2023/06/20 07:39:16;;;;;;;12.15;7.43;;;;;;;24.10;71.42;100970.66;5086882;28;20114;-69
2023/06/20 07:41:41;;;;;;;9.57;8.07;;;;;;;24.10;72.37;100967.13;5079743;28;20577;-70
2023/06/20 07:44:08;;;;;;;8.75;7.63;;;;;;;24.15;71.99;100967.63;5080480;28;20028;-70
2023/06/20 07:46:33;;;;;;;9.48;7.20;;;;;;;24.24;72.30;100964.25;5080938;28;20499;-70
2023/06/20 07:48:59;;;;;;;9.90;7.05;;;;;;;24.31;72.05;100984.09;5090414;28;20066;-70
2023/06/20 07:51:24;;;;;;;10.05;6.95;;;;;;;24.35;70.76;100982.88;5084696;28;20042;-69
2023/06/20 07:53:49;;;;;;;7.95;7.15;;;;;;;24.36;69.96;100989.94;5083793;28;20028;-69
2023/06/20 07:56:15;;;;;;;9.98;6.30;;;;;;;24.49;71.89;100993.34;5084088;28;20099;-69
2023/06/20 07:58:41;;;;;;;7.20;6.45;;;;;;;24.66;70.41;100986.66;5077388;28;20031;-69
2023/06/20 08:01:07;;;;;;;8.65;7.00;;;;;;;24.74;69.86;100986.03;5083032;28;20028;-69
2023/06/20 08:03:33;;;;;;;10.55;7.90;;;;;;;24.61;70.30;100967.50;5083373;28;20019;-69
2023/06/20 08:05:58;;;;;;;9.57;7.80;;;;;;;24.71;67.53;100970.28;5083387;28;20103;-69
2023/06/20 08:08:23;;;;;;;7.90;7.07;;;;;;;24.80;69.87;100969.53;5088501;28;20020;-70
2023/06/20 08:10:49;;;;;;;7.87;6.47;;;;;;;24.86;70.89;100978.88;5083598;28;20067;-69
2023/06/20 08:13:14;;;;;;;10.67;8.10;;;;;;;24.88;70.06;100975.06;5086854;28;20289;-69
2023/06/20 08:15:39;;;;;;;8.23;7.40;;;;;;;24.99;68.48;100972.41;5085757;28;20342;-70
2023/06/20 08:18:04;;;;;;;8.13;6.73;;;;;;;25.17;71.05;100974.53;5085132;28;20300;-70
2023/06/20 08:20:30;;;;;;;7.47;6.78;;;;;;;25.35;68.40;100970.34;5085593;28;20825;-70
2023/06/20 08:22:56;;;;;;;6.63;6.03;;;;;;;25.49;67.46;100965.66;5084491;28;20028;-69
2023/06/20 08:25:21;;;;;;;7.05;6.00;;;;;;;25.58;66.74;100968.41;5086516;28;20020;-70
2023/06/20 08:27:46;;;;;;;6.63;5.40;;;;;;;25.64;65.78;100967.06;5084167;28;20079;-70
2023/06/20 08:30:12;;;;;;;7.13;5.57;;;;;;;25.74;67.02;100977.78;5085846;28;20135;-70
2023/06/20 08:32:39;;;;;;;7.05;5.88;;;;;;;25.67;64.83;100956.13;5085767;28;20456;-70
2023/06/20 08:35:05;;;;;;;6.93;5.90;;;;;;;25.77;64.61;100975.72;5083823;28;20025;-69
2023/06/20 08:37:30;;;;;;;6.75;5.90;;;;;;;25.90;64.20;100981.72;5085816;28;20031;-70
2023/06/20 08:39:55;;;;;;;5.80;5.28;;;;;;;26.00;63.96;100976.44;5081403;28;20361;-70
2023/06/20 08:42:21;;;;;;;6.70;5.25;;;;;;;26.08;63.66;100968.59;5084965;28;20119;-70
2023/06/20 08:44:46;;;;;;;5.78;5.28;;;;;;;26.14;62.99;100968.06;5087201;28;20032;-69
2023/06/20 08:47:11;;;;;;;7.25;5.50;;;;;;;26.36;63.06;100975.03;5083471;28;20035;-70
2023/06/20 08:49:38;;;;;;;7.13;5.97;;;;;;;26.36;61.21;100975.03;5088456;28;20033;-70
2023/06/20 08:52:13;;;;;;;7.80;5.78;;;;;;;26.35;60.88;100981.34;5081049;28;20468;-69
2023/06/20 08:54:41;;;;;;;5.63;5.13;;;;;;;26.36;61.59;100972.38;5079917;28;20034;-69
2023/06/20 08:57:07;;;;;;;5.88;5.38;;;;;;;26.53;61.17;100967.41;5083981;28;20035;-70
2023/06/20 08:59:36;;;;;;;6.45;5.30;;;;;;;26.64;61.30;100969.09;5083802;28;20376;-70
2023/06/20 09:02:02;;;;;;;7.07;5.50;;;;;;;26.60;59.99;100956.00;5085939;28;20031;-69
2023/06/20 09:04:28;;;;;;;5.78;5.25;;;;;;;26.48;60.42;100958.94;5082460;28;20024;-69
2023/06/20 09:06:53;;;;;;;6.43;5.78;;;;;;;26.29;60.25;100952.53;5085337;28;20181;-69
2023/06/20 09:09:21;;;;;;;6.82;5.75;;;;;;;26.17;61.26;100955.41;5085170;28;20051;-70
2023/06/20 09:11:58;;;;;;;7.65;5.43;;;;;;;26.35;64.03;100954.63;5083964;28;20032;-70
2023/06/20 09:14:27;;;;;;;6.50;5.25;;;;;;;26.53;61.89;100962.88;5084834;28;20028;-70
2023/06/20 09:16:53;;;;;;;5.93;5.22;;;;;;;26.86;60.99;100955.50;5083890;28;20028;-69
2023/06/20 09:19:19;;;;;;;5.72;5.15;;;;;;;27.03;58.64;100960.16;5086268;28;20024;-70
2023/06/20 09:21:44;;;;;;;6.97;5.22;;;;;;;27.22;58.64;100967.38;5082234;28;20075;-69
2023/06/20 09:24:09;;;;;;;7.95;5.05;;;;;;;27.36;55.98;100962.59;5087777;28;20048;-69
2023/06/20 09:26:35;;;;;;;5.00;4.40;;;;;;;27.24;57.04;100957.38;5081647;28;20035;-70
2023/06/20 09:29:10;;;;;;;7.35;5.35;;;;;;;27.44;56.51;100973.44;5088835;28;20394;-70
2023/06/20 09:31:53;;;;;;;8.55;6.13;;;;;;;27.39;57.20;100975.69;5080571;28;20418;-69
2023/06/20 09:34:19;;;;;;;;;;;;;;;27.39;56.95;100967.66;5075726;28;20062;-69
2023/06/20 09:36:48;;;;;;;6.97;5.40;;;;;;;27.23;56.81;100973.56;5081503;28;19916;-70
2023/06/20 09:39:20;;;;;;;6.07;5.28;;;;;;;27.31;58.37;100976.41;5088563;28;20028;-70
2023/06/20 09:41:50;;;;;;;5.72;5.22;;;;;;;27.38;56.21;100971.31;5081267;28;20067;-69
2023/06/20 09:44:19;;;;;;;8.35;5.10;;;;;;;27.46;55.65;100963.41;5089429;28;20028;-69
2023/06/20 09:46:45;;;;;;;8.50;4.90;;;;;;;27.59;56.36;100963.97;5080542;28;20099;-70
2023/06/20 09:49:12;;;;;;;6.15;4.75;;;;;;;27.77;54.86;100962.28;5089531;28;20031;-69
2023/06/20 09:51:54;;;;;;;4.97;4.45;;;;;;;27.87;56.16;100969.44;5080473;28;20020;-70
2023/06/20 09:54:35;;;;;;;4.50;4.10;;;;;;;27.93;54.73;100976.91;5085362;28;20017;-70
2023/06/20 09:57:05;;;;;;;4.63;4.18;;;;;;;27.92;54.11;100972.50;5084323;28;20479;-70
2023/06/20 09:59:32;;;;;;;5.10;4.15;;;;;;;27.96;52.51;100968.59;5082139;28;20032;-70
2023/06/20 10:01:59;;;;;;;6.65;4.15;;;;;;;28.05;53.33;100969.50;5084819;28;20035;-70
2023/06/20 10:04:31;;;;;;;5.15;4.50;;;;;;;28.11;52.52;100960.91;5081830;28;20456;-70
2023/06/20 10:06:57;;;;;;;5.90;4.75;;;;;;;28.20;51.69;100966.22;5079787;28;20029;-70
2023/06/20 10:09:24;;;;;;;4.80;4.25;;;;;;;28.28;52.70;100961.94;5079839;28;20016;-70
2023/06/20 10:11:50;;;;;;;6.18;4.22;;;;;;;28.47;52.50;100957.38;5083914;28;20032;-69
2023/06/20 10:14:16;;;;;;;4.20;3.67;;;;;;;28.68;52.49;100956.28;5084225;28;20535;-70
2023/06/20 10:16:50;;;;;;;6.63;3.75;;;;;;;28.72;51.01;100951.44;5081275;28;20058;-70
2023/06/20 10:19:17;;;;;;;8.13;3.78;;;;;;;28.70;49.14;100939.00;5085775;28;20074;-69
2023/06/20 10:22:00;;;;;;;4.30;3.65;;;;;;;28.75;50.27;100943.09;5080098;28;20484;-70
2023/06/20 10:24:28;;;;;;;;;;;;;;;28.93;51.13;100935.88;5085290;28;20400;-70
2023/06/20 10:26:54;;;;;;;3.90;3.60;;;;;;;28.90;49.41;100936.19;5081502;28;19916;-70
2023/06/20 10:29:21;;;;;;;5.30;3.20;;;;;;;28.93;49.00;100931.38;5086369;28;20040;-70
2023/06/20 10:32:01;;;;;;;3.17;2.78;;;;;;;28.77;47.58;100922.31;5080728;28;20032;-70
2023/06/20 10:34:28;;;;;;;4.18;2.88;;;;;;;28.82;47.22;100911.97;5074005;28;20035;-70
2023/06/20 10:37:27;;;;;;;4.90;2.78;;;;;;;28.93;47.36;100914.41;5081040;28;20103;-70
2023/06/20 10:39:57;;;;;;;4.82;3.00;;;;;;;29.08;47.27;100896.81;5078134;28;20527;-70
2023/06/20 10:42:39;;;;;;;3.65;3.35;;;;;;;29.25;46.06;100907.69;5082522;28;20035;-69
2023/06/20 10:45:24;;;;;;;4.00;3.33;;;;;;;29.33;46.47;100905.06;5083163;28;20021;-70
2023/06/20 10:47:50;;;;;;;5.50;3.10;;;;;;;29.45;46.05;100903.81;5083413;28;20440;-70
2023/06/20 10:50:16;;;;;;;3.78;2.95;;;;;;;29.55;45.00;100914.44;5082920;28;20032;-70
2023/06/20 10:52:42;;;;;;;3.50;2.90;;;;;;;29.71;47.46;100914.59;5081247;28;20424;-70
2023/06/20 10:55:26;;;;;;;3.17;2.83;;;;;;;29.84;46.22;100900.72;5079751;28;20503;-70
2023/06/20 10:57:52;;;;;;;3.08;2.80;;;;;;;29.90;45.06;100899.25;5076731;28;20044;-70
2023/06/20 11:00:19;;;;;;;6.13;3.10;;;;;;;29.90;43.93;100883.13;5083668;28;20035;-70
2023/06/20 11:02:50;;;;;;;3.97;3.20;;;;;;;30.14;43.78;100888.59;5080103;28;20043;-70
2023/06/20 11:05:19;;;;;;;5.85;3.10;;;;;;;30.28;43.16;100892.53;5083987;28;20168;-70
2023/06/20 11:07:59;;;;;;;3.10;2.85;;;;;;;30.36;42.10;100879.13;5081538;28;20025;-70
2023/06/20 11:10:32;;;;;;;4.32;2.97;;;;;;;30.47;43.17;100877.97;5082996;28;20039;-70
2023/06/20 11:13:02;;;;;;;4.97;3.05;;;;;;;30.61;41.63;100884.53;5082015;28;20060;-70
2023/06/20 11:15:30;;;;;;;4.18;2.80;;;;;;;30.89;42.63;100882.41;5083507;28;20020;-70
2023/06/20 11:17:57;;;;;;;3.40;3.10;;;;;;;31.00;43.25;100868.63;5081120;28;20035;-70
2023/06/20 11:20:24;;;;;;;5.47;3.22;;;;;;;31.02;41.68;100867.44;5083846;28;20055;-70